Terminal Aerodrome Forecast
Issued by NWS

Home | Current Version | Previous Version | Text Only | Print | Product List | Glossary On
Versions: 1 2 3 4 5 6 7 8 9 10 11 12 13 14 15 16 17 18 19 20 21 22 23 24 25 26
712
FTUS46 KMTR 191722
TAFSFO
TAF
KSFO 191722Z 1918/2024 VRB03KT P6SM FEW010 BKN250
     FM192200 33004KT P6SM BKN250
     FM200100 28005KT P6SM BKN180
     FM200800 25004KT P6SM SCT040 BKN080 OVC120
     FM201100 13004KT P6SM SCT030 OVC060
     FM202000 16005KT P6SM FEW040 SCT070 BKN200=

USA.gov is the U.S. government's official web portal to all federal, state and local government web resources and services.